Palm Springs (PSP/KPSP)

Map

Destinations

Information

Location
Palm Springs, CA
Local Time
18:48 / 6:48 pm
GMT Time
01:48 / 1:48 am
Gates
9
No FAA reported delays
METAR KPSP 270053Z AUTO 33020G26KT 8SM CLR 44/M04 A2976 RMK AO2 PK WND 33026/0053 SLP073 T04441039
TAF KPSP 262336Z 2700/2724 32015G25KT P6SM SKC FM270400 33010KT P6SM SKC FM270600 VRB05KT P6SM SKC